Viimsi — ES2084 — position and weather

sailwx.info

Track history (hours):
 
Tides and Currents Weather Stations Pressure Air Temp Water Temp Dewpoint Dewpoint Depression Visibility Wind Speed Wind Dir Waves Ship Positions

Viimsi

Last reported at 2015-Jul-05 05:33 UTC. Time now 2015-Jul-05 06:09 UTC.
Position N 59°28' E 024°43'.

Length 78 m; draft 4.3 m.

Type: Ship. MMSI: 276297000.

Date/timePositionNaut miles runAvg speedWind from/ knotsBaromVisibWave heightAir tempDewpointWater temp
2015-Jul-05 05:33N 59°28' E 024°43'0 0.0
2015-Jul-05 04:33N 59°28' E 024°43'0 0.0
2015-Jul-05 03:33N 59°28' E 024°43'0 0.0
2015-Jul-05 02:33N 59°28' E 024°43'0 0.0
2015-Jul-05 01:33N 59°28' E 024°43'0 0.0
2015-Jul-05 00:33N 59°28' E 024°43'0 0.0
2015-Jul-04 23:33N 59°28' E 024°43'0 0.0
2015-Jul-04 22:33N 59°28' E 024°43'0 0.0
2015-Jul-04 21:33N 59°28' E 024°43'0 0.0
2015-Jul-04 20:33N 59°28' E 024°43'0 0.0
2015-Jul-04 19:33N 59°28' E 024°43'0 0.0
2015-Jul-04 18:33N 59°28' E 024°43'0 0.0
2015-Jul-04 17:33N 59°28' E 024°43'0 0.0
2015-Jul-04 16:33N 59°28' E 024°43'0 0.0
2015-Jul-04 15:33N 59°28' E 024°43'0 0.0
2015-Jul-04 14:33N 59°28' E 024°43'0 0.0
2015-Jul-04 13:33N 59°28' E 024°43'0 0.0
2015-Jul-04 12:33N 59°28' E 024°43'0 0.0
2015-Jul-04 11:33N 59°28' E 024°43'0 0.0
2015-Jul-04 10:33N 59°28' E 024°43'0 0.0
2015-Jul-04 09:33N 59°28' E 024°43'0 0.0
2015-Jul-04 08:33N 59°28' E 024°43'0 0.0
2015-Jul-04 07:33N 59°28' E 024°43'0 0.0
2015-Jul-04 06:33N 59°28' E 024°43'0 0.0
2015-Jul-04 05:33N 59°28' E 024°43'0 0.0
2015-Jul-03 22:24N 59°28' E 024°43'0 0.0
2015-Jul-03 21:33N 59°28' E 024°43'0 0.0
2015-Jul-03 20:33N 59°28' E 024°43'0 0.0
2015-Jul-03 19:33N 59°28' E 024°43'0 0.0
2015-Jul-03 18:33N 59°28' E 024°43'0 0.0
2015-Jul-03 17:33N 59°28' E 024°43'0 0.0
2015-Jul-03 16:33N 59°28' E 024°43'0 0.0
2015-Jul-03 15:33N 59°28' E 024°43'0 0.0
2015-Jul-03 14:33N 59°28' E 024°43'0 0.0
2015-Jul-03 13:33N 59°28' E 024°43'0 0.0
2015-Jul-03 12:33N 59°28' E 024°43'0 0.0
2015-Jul-03 11:33N 59°28' E 024°43'0 0.0
2015-Jul-03 10:33N 59°28' E 024°43'0 0.0
2015-Jul-03 09:33N 59°28' E 024°43'0 0.0
2015-Jul-03 08:33N 59°28' E 024°43'0 0.0
2015-Jul-03 07:33N 59°28' E 024°43'0 0.0
2015-Jul-03 06:33N 59°28' E 024°43'0 0.0
2015-Jul-03 05:33N 59°28' E 024°43'0 0.0
2015-Jul-03 04:33N 59°28' E 024°43'0 0.0
2015-Jul-03 03:33N 59°28' E 024°43'0 0.0
2015-Jul-03 02:33N 59°28' E 024°43'0 0.0
2015-Jul-03 01:33N 59°28' E 024°43'0 0.0
2015-Jul-03 00:33N 59°28' E 024°43'0 0.0
2015-Jul-02 23:33N 59°28' E 024°43'0 0.0
2015-Jul-02 22:33N 59°28' E 024°43'0 0.0
2015-Jul-02 21:33N 59°28' E 024°43'0 0.0
2015-Jul-02 20:33N 59°28' E 024°43'0 0.0
2015-Jul-02 19:33N 59°28' E 024°43'0 0.0
2015-Jul-02 18:33N 59°28' E 024°43'0 0.0
2015-Jul-02 17:33N 59°28' E 024°43'0 0.0
2015-Jul-02 16:33N 59°28' E 024°43'0 0.0
2015-Jul-02 15:33N 59°28' E 024°43'0 0.0
2015-Jul-02 14:33N 59°28' E 024°43'0 0.0
2015-Jul-02 13:33N 59°28' E 024°43'0 0.0
2015-Jul-02 12:33N 59°28' E 024°43'0 0.0
2015-Jul-02 11:33N 59°28' E 024°43'0 0.0
2015-Jul-02 10:33N 59°28' E 024°43'0 0.0
2015-Jul-02 09:33N 59°28' E 024°43'0 0.0
2015-Jul-02 08:33N 59°28' E 024°43'0 0.0
2015-Jul-02 07:33N 59°28' E 024°43'0 0.0
2015-Jul-02 06:33N 59°28' E 024°43'0 0.0
2015-Jul-02 05:33N 59°28' E 024°43'0 0.0
2015-Jul-02 04:33N 59°28' E 024°43'0 0.0
2015-Jul-02 03:33N 59°28' E 024°43'6 2.9
2015-Jul-02 01:33N 59°29' E 024°32'0 0.0
2015-Jul-02 00:33N 59°29' E 024°32'0 0.0
2015-Jul-01 23:31N 59°29' E 024°32'0 0.0
2015-Jul-01 22:33N 59°29' E 024°32'4 4.5
2015-Jul-01 21:33N 59°30' E 024°40'3 2.6
2015-Jul-01 20:33N 59°28' E 024°43'0 0.0
2015-Jul-01 19:33N 59°28' E 024°43'0 0.0
2015-Jul-01 18:34N 59°28' E 024°43'0 0.0
2015-Jul-01 17:33N 59°28' E 024°43'0 0.0
2015-Jul-01 16:33N 59°28' E 024°43'0 0.0
2015-Jul-01 15:33N 59°28' E 024°43'0 0.0
2015-Jul-01 14:33N 59°28' E 024°43'0 0.0
2015-Jul-01 13:33N 59°28' E 024°43'0 0.0
2015-Jul-01 12:33N 59°28' E 024°43'0 0.0
2015-Jul-01 11:34N 59°28' E 024°43'0 0.0
2015-Jul-01 10:33N 59°28' E 024°43'0 0.0
2015-Jul-01 09:33N 59°28' E 024°43'0 0.0
2015-Jul-01 08:33N 59°28' E 024°43'0 0.0
2015-Jul-01 07:33N 59°28' E 024°43'0 0.0
2015-Jul-01 06:33N 59°28' E 024°43'0 0.0
2015-Jul-01 05:33N 59°28' E 024°43'0 0.0
2015-Jul-01 04:33N 59°28' E 024°43'0 0.0
2015-Jul-01 03:33N 59°28' E 024°43'0 0.0
2015-Jul-01 02:33N 59°28' E 024°43'0 0.0
2015-Jul-01 01:33N 59°28' E 024°43'0 0.0
2015-Jul-01 00:33N 59°28' E 024°43'0 0.0
2015-Jun-30 23:33N 59°28' E 024°43'0 0.0
2015-Jun-30 22:33N 59°28' E 024°43'0 0.0
2015-Jun-30 21:33N 59°28' E 024°43'0 0.0
2015-Jun-30 20:33N 59°28' E 024°43'0 0.0
2015-Jun-30 19:33N 59°28' E 024°43'0 0.0
2015-Jun-30 18:33N 59°28' E 024°43'0 0.0
2015-Jun-30 17:34N 59°28' E 024°43'1 0.8
2015-Jun-30 16:33N 59°28' E 024°44'10 9.7
2015-Jun-30 15:33N 59°38' E 024°40'9 8.8
2015-Jun-30 14:34N 59°33' E 024°55'1 0.2
2015-Jun-30 06:16N 59°34' E 024°53'6 8.2
2015-Jun-30 05:32N 59°36' E 024°42'8 8.0
2015-Jun-30 04:29N 59°28' E 024°37'1 0.8
2015-Jun-30 03:31N 59°28' E 024°39'0 0.0
2015-Jun-30 02:31N 59°28' E 024°39'0 0.0
2015-Jun-30 01:33N 59°28' E 024°39'0 0.0
2015-Jun-30 00:31N 59°28' E 024°39'0 0.0
2015-Jun-29 23:32N 59°28' E 024°39'0 0.0
2015-Jun-29 22:31N 59°28' E 024°39'0 0.0
2015-Jun-29 21:33N 59°28' E 024°39'0 0.0
2015-Jun-29 17:31N 59°28' E 024°39'0 0.0
2015-Jun-29 16:33N 59°28' E 024°39'0 0.0
2015-Jun-29 15:17N 59°28' E 024°39'0 0.0
2015-Jun-29 14:33N 59°28' E 024°39'0 0.0
2015-Jun-29 12:15N 59°28' E 024°39'1 1.9
2015-Jun-29 11:33N 59°29' E 024°37'5 4.8
2015-Jun-29 10:30N 59°27' E 024°46'0 0.0
2015-Jun-29 09:32N 59°27' E 024°46'0 0.0
2015-Jun-29 08:32N 59°27' E 024°46'1 0.6
2015-Jun-29 07:33N 59°27' E 024°46'2 1.9
2015-Jun-29 06:33N 59°28' E 024°42'0 0.0
2015-Jun-29 05:32N 59°28' E 024°42'0 0.0
2015-Jun-29 04:33N 59°28' E 024°42'0 0.0
2015-Jun-29 03:33N 59°28' E 024°42'0 0.0
2015-Jun-29 02:33N 59°28' E 024°42'0 0.0
2015-Jun-29 01:33N 59°28' E 024°42'0 0.0
2015-Jun-29 00:33N 59°28' E 024°42'0 0.0
2015-Jun-28 23:33N 59°28' E 024°42'0 0.0
2015-Jun-28 22:32N 59°28' E 024°42'0 0.0
2015-Jun-28 21:33N 59°28' E 024°42'0 0.0
2015-Jun-28 20:33N 59°28' E 024°42'0 0.0
2015-Jun-28 19:33N 59°28' E 024°42'0 0.0
2015-Jun-28 18:33N 59°28' E 024°42'0 0.0
2015-Jun-28 17:33N 59°28' E 024°42'0 0.0
2015-Jun-28 16:33N 59°28' E 024°42'0 0.0
2015-Jun-28 15:33N 59°28' E 024°42'3 3.1
2015-Jun-28 14:33N 59°30' E 024°38'3 2.8
2015-Jun-28 13:29N 59°29' E 024°32'0 0.0
2015-Jun-28 12:32N 59°29' E 024°32'7 7.3
2015-Jun-28 11:33N 59°28' E 024°46'1 0.8
2015-Jun-28 10:33N 59°27' E 024°46'0 0.1
2015-Jun-28 09:33N 59°27' E 024°46'0 0.0
2015-Jun-28 08:33N 59°27' E 024°46'8 5.9
2015-Jun-28 07:13N 59°29' E 024°32'0 0.0
2015-Jun-28 06:33N 59°29' E 024°32'0 0.0
2015-Jun-27 16:26N 59°29' E 024°32'6 6.8
2015-Jun-27 15:33N 59°28' E 024°44'1 0.9
2015-Jun-27 14:32N 59°28' E 024°42'0 0.0
2015-Jun-27 13:32N 59°28' E 024°42'0 0.0
2015-Jun-27 12:33N 59°28' E 024°42'0 0.0
2015-Jun-27 11:33N 59°28' E 024°42'0 0.0
2015-Jun-27 10:33N 59°28' E 024°42'0 0.0
2015-Jun-27 09:33N 59°28' E 024°42'0 0.0
2015-Jun-27 08:33N 59°28' E 024°42'0 0.0
2015-Jun-27 07:25N 59°28' E 024°42'0 0.0
2015-Jun-27 06:33N 59°28' E 024°42'2 1.7
2015-Jun-27 05:33N 59°28' E 024°45'2 2.3
2015-Jun-27 04:33N 59°30' E 024°49'0 0.0
2015-Jun-27 03:33N 59°30' E 024°49'0 0.0
2015-Jun-27 02:33N 59°30' E 024°49'0 0.0
2015-Jun-27 01:33N 59°30' E 024°49'0 0.0
2015-Jun-27 00:33N 59°30' E 024°49'0 0.0
2015-Jun-26 23:33N 59°30' E 024°49'0 0.0
2015-Jun-26 22:33N 59°30' E 024°49'0 0.0
2015-Jun-26 21:33N 59°30' E 024°49'0 0.0
2015-Jun-26 20:33N 59°30' E 024°49'0 0.0
2015-Jun-26 19:33N 59°30' E 024°49'0 0.0
2015-Jun-26 18:33N 59°30' E 024°49'0 0.0
2015-Jun-26 17:33N 59°30' E 024°49'0 0.0
2015-Jun-26 16:33N 59°30' E 024°49'3 3.3
2015-Jun-26 15:33N 59°30' E 024°42'6 2.6
2015-Jun-26 13:18N 59°31' E 024°31'0 0.1
2015-Jun-26 12:33N 59°31' E 024°31'0 0.0
2015-Jun-26 10:07N 59°31' E 024°31'4 1.7
2015-Jun-26 07:33N 59°28' E 024°37'1 0.8
2015-Jun-26 06:31N 59°28' E 024°39'0 0.0
2015-Jun-26 05:31N 59°28' E 024°39'0 0.0
2015-Jun-26 04:29N 59°28' E 024°39'0 0.0
2015-Jun-26 03:30N 59°28' E 024°39'0 0.0
2015-Jun-26 02:31N 59°28' E 024°39'0 0.0
2015-Jun-26 01:33N 59°28' E 024°39'0 0.0
2015-Jun-26 00:31N 59°28' E 024°39'0 0.0
2015-Jun-25 23:33N 59°28' E 024°39'0 0.0
2015-Jun-25 22:33N 59°28' E 024°39'0 0.0
2015-Jun-25 21:33N 59°28' E 024°39'0 0.0
2015-Jun-25 20:33N 59°28' E 024°39'0 0.0
2015-Jun-25 19:33N 59°28' E 024°39'0 0.0
2015-Jun-25 18:25N 59°28' E 024°39'0 0.0
2015-Jun-25 17:33N 59°28' E 024°39'0 0.0
2015-Jun-25 16:33N 59°28' E 024°39'  
Track history (hours):
 
Tides and Currents Weather Stations Pressure Air Temp Water Temp Dewpoint Dewpoint Depression Visibility Wind Speed Wind Dir Waves Ship Positions

Viimsi

Last reported at 2015-Jul-05 05:33 UTC. Time now 2015-Jul-05 06:09 UTC.
Position N 59°28' E 024°43'.

Length 78 m; draft 4.3 m.

Type: Ship. MMSI: 276297000.

Date/timePositionNaut miles runAvg speedWind from/ knotsBaromVisibWave heightAir tempDewpointWater temp
2015-Jul-05 05:33N 59°28' E 024°43'0 0.0
2015-Jul-05 04:33N 59°28' E 024°43'0 0.0
2015-Jul-05 03:33N 59°28' E 024°43'0 0.0
2015-Jul-05 02:33N 59°28' E 024°43'0 0.0
2015-Jul-05 01:33N 59°28' E 024°43'0 0.0
2015-Jul-05 00:33N 59°28' E 024°43'0 0.0
2015-Jul-04 23:33N 59°28' E 024°43'0 0.0
2015-Jul-04 22:33N 59°28' E 024°43'0 0.0
2015-Jul-04 21:33N 59°28' E 024°43'0 0.0
2015-Jul-04 20:33N 59°28' E 024°43'0 0.0
2015-Jul-04 19:33N 59°28' E 024°43'0 0.0
2015-Jul-04 18:33N 59°28' E 024°43'0 0.0
2015-Jul-04 17:33N 59°28' E 024°43'0 0.0
2015-Jul-04 16:33N 59°28' E 024°43'0 0.0
2015-Jul-04 15:33N 59°28' E 024°43'0 0.0
2015-Jul-04 14:33N 59°28' E 024°43'0 0.0
2015-Jul-04 13:33N 59°28' E 024°43'0 0.0
2015-Jul-04 12:33N 59°28' E 024°43'0 0.0
2015-Jul-04 11:33N 59°28' E 024°43'0 0.0
2015-Jul-04 10:33N 59°28' E 024°43'0 0.0
2015-Jul-04 09:33N 59°28' E 024°43'0 0.0
2015-Jul-04 08:33N 59°28' E 024°43'0 0.0
2015-Jul-04 07:33N 59°28' E 024°43'0 0.0
2015-Jul-04 06:33N 59°28' E 024°43'0 0.0
2015-Jul-04 05:33N 59°28' E 024°43'0 0.0
2015-Jul-03 22:24N 59°28' E 024°43'0 0.0
2015-Jul-03 21:33N 59°28' E 024°43'0 0.0
2015-Jul-03 20:33N 59°28' E 024°43'0 0.0
2015-Jul-03 19:33N 59°28' E 024°43'0 0.0
2015-Jul-03 18:33N 59°28' E 024°43'0 0.0
2015-Jul-03 17:33N 59°28' E 024°43'0 0.0
2015-Jul-03 16:33N 59°28' E 024°43'0 0.0
2015-Jul-03 15:33N 59°28' E 024°43'0 0.0
2015-Jul-03 14:33N 59°28' E 024°43'0 0.0
2015-Jul-03 13:33N 59°28' E 024°43'0 0.0
2015-Jul-03 12:33N 59°28' E 024°43'0 0.0
2015-Jul-03 11:33N 59°28' E 024°43'0 0.0
2015-Jul-03 10:33N 59°28' E 024°43'0 0.0
2015-Jul-03 09:33N 59°28' E 024°43'0 0.0
2015-Jul-03 08:33N 59°28' E 024°43'0 0.0
2015-Jul-03 07:33N 59°28' E 024°43'0 0.0
2015-Jul-03 06:33N 59°28' E 024°43'0 0.0
2015-Jul-03 05:33N 59°28' E 024°43'0 0.0
2015-Jul-03 04:33N 59°28' E 024°43'0 0.0
2015-Jul-03 03:33N 59°28' E 024°43'0 0.0
2015-Jul-03 02:33N 59°28' E 024°43'0 0.0
2015-Jul-03 01:33N 59°28' E 024°43'0 0.0
2015-Jul-03 00:33N 59°28' E 024°43'0 0.0
2015-Jul-02 23:33N 59°28' E 024°43'0 0.0
2015-Jul-02 22:33N 59°28' E 024°43'0 0.0
2015-Jul-02 21:33N 59°28' E 024°43'0 0.0
2015-Jul-02 20:33N 59°28' E 024°43'0 0.0
2015-Jul-02 19:33N 59°28' E 024°43'0 0.0
2015-Jul-02 18:33N 59°28' E 024°43'0 0.0
2015-Jul-02 17:33N 59°28' E 024°43'0 0.0
2015-Jul-02 16:33N 59°28' E 024°43'0 0.0
2015-Jul-02 15:33N 59°28' E 024°43'0 0.0
2015-Jul-02 14:33N 59°28' E 024°43'0 0.0
2015-Jul-02 13:33N 59°28' E 024°43'0 0.0
2015-Jul-02 12:33N 59°28' E 024°43'0 0.0
2015-Jul-02 11:33N 59°28' E 024°43'0 0.0
2015-Jul-02 10:33N 59°28' E 024°43'0 0.0
2015-Jul-02 09:33N 59°28' E 024°43'0 0.0
2015-Jul-02 08:33N 59°28' E 024°43'0 0.0
2015-Jul-02 07:33N 59°28' E 024°43'0 0.0
2015-Jul-02 06:33N 59°28' E 024°43'0 0.0
2015-Jul-02 05:33N 59°28' E 024°43'0 0.0
2015-Jul-02 04:33N 59°28' E 024°43'0 0.0
2015-Jul-02 03:33N 59°28' E 024°43'6 2.9
2015-Jul-02 01:33N 59°29' E 024°32'0 0.0
2015-Jul-02 00:33N 59°29' E 024°32'0 0.0
2015-Jul-01 23:31N 59°29' E 024°32'0 0.0
2015-Jul-01 22:33N 59°29' E 024°32'4 4.5
2015-Jul-01 21:33N 59°30' E 024°40'3 2.6
2015-Jul-01 20:33N 59°28' E 024°43'0 0.0
2015-Jul-01 19:33N 59°28' E 024°43'0 0.0
2015-Jul-01 18:34N 59°28' E 024°43'0 0.0
2015-Jul-01 17:33N 59°28' E 024°43'0 0.0
2015-Jul-01 16:33N 59°28' E 024°43'0 0.0
2015-Jul-01 15:33N 59°28' E 024°43'0 0.0
2015-Jul-01 14:33N 59°28' E 024°43'0 0.0
2015-Jul-01 13:33N 59°28' E 024°43'0 0.0
2015-Jul-01 12:33N 59°28' E 024°43'0 0.0
2015-Jul-01 11:34N 59°28' E 024°43'0 0.0
2015-Jul-01 10:33N 59°28' E 024°43'0 0.0
2015-Jul-01 09:33N 59°28' E 024°43'0 0.0
2015-Jul-01 08:33N 59°28' E 024°43'0 0.0
2015-Jul-01 07:33N 59°28' E 024°43'0 0.0
2015-Jul-01 06:33N 59°28' E 024°43'0 0.0
2015-Jul-01 05:33N 59°28' E 024°43'0 0.0
2015-Jul-01 04:33N 59°28' E 024°43'0 0.0
2015-Jul-01 03:33N 59°28' E 024°43'0 0.0
2015-Jul-01 02:33N 59°28' E 024°43'0 0.0
2015-Jul-01 01:33N 59°28' E 024°43'0 0.0
2015-Jul-01 00:33N 59°28' E 024°43'0 0.0
2015-Jun-30 23:33N 59°28' E 024°43'0 0.0
2015-Jun-30 22:33N 59°28' E 024°43'0 0.0
2015-Jun-30 21:33N 59°28' E 024°43'0 0.0
2015-Jun-30 20:33N 59°28' E 024°43'0 0.0
2015-Jun-30 19:33N 59°28' E 024°43'0 0.0
2015-Jun-30 18:33N 59°28' E 024°43'0 0.0
2015-Jun-30 17:34N 59°28' E 024°43'1 0.8
2015-Jun-30 16:33N 59°28' E 024°44'10 9.7
2015-Jun-30 15:33N 59°38' E 024°40'9 8.8
2015-Jun-30 14:34N 59°33' E 024°55'1 0.2
2015-Jun-30 06:16N 59°34' E 024°53'6 8.2
2015-Jun-30 05:32N 59°36' E 024°42'8 8.0
2015-Jun-30 04:29N 59°28' E 024°37'1 0.8
2015-Jun-30 03:31N 59°28' E 024°39'0 0.0
2015-Jun-30 02:31N 59°28' E 024°39'0 0.0
2015-Jun-30 01:33N 59°28' E 024°39'0 0.0
2015-Jun-30 00:31N 59°28' E 024°39'0 0.0
2015-Jun-29 23:32N 59°28' E 024°39'0 0.0
2015-Jun-29 22:31N 59°28' E 024°39'0 0.0
2015-Jun-29 21:33N 59°28' E 024°39'0 0.0
2015-Jun-29 17:31N 59°28' E 024°39'0 0.0
2015-Jun-29 16:33N 59°28' E 024°39'0 0.0
2015-Jun-29 15:17N 59°28' E 024°39'0 0.0
2015-Jun-29 14:33N 59°28' E 024°39'0 0.0
2015-Jun-29 12:15N 59°28' E 024°39'1 1.9
2015-Jun-29 11:33N 59°29' E 024°37'5 4.8
2015-Jun-29 10:30N 59°27' E 024°46'0 0.0
2015-Jun-29 09:32N 59°27' E 024°46'0 0.0
2015-Jun-29 08:32N 59°27' E 024°46'1 0.6
2015-Jun-29 07:33N 59°27' E 024°46'2 1.9
2015-Jun-29 06:33N 59°28' E 024°42'0 0.0
2015-Jun-29 05:32N 59°28' E 024°42'0 0.0
2015-Jun-29 04:33N 59°28' E 024°42'0 0.0
2015-Jun-29 03:33N 59°28' E 024°42'0 0.0
2015-Jun-29 02:33N 59°28' E 024°42'0 0.0
2015-Jun-29 01:33N 59°28' E 024°42'0 0.0
2015-Jun-29 00:33N 59°28' E 024°42'0 0.0
2015-Jun-28 23:33N 59°28' E 024°42'0 0.0
2015-Jun-28 22:32N 59°28' E 024°42'0 0.0
2015-Jun-28 21:33N 59°28' E 024°42'0 0.0
2015-Jun-28 20:33N 59°28' E 024°42'0 0.0
2015-Jun-28 19:33N 59°28' E 024°42'0 0.0
2015-Jun-28 18:33N 59°28' E 024°42'0 0.0
2015-Jun-28 17:33N 59°28' E 024°42'0 0.0
2015-Jun-28 16:33N 59°28' E 024°42'0 0.0
2015-Jun-28 15:33N 59°28' E 024°42'3 3.1
2015-Jun-28 14:33N 59°30' E 024°38'3 2.8
2015-Jun-28 13:29N 59°29' E 024°32'0 0.0
2015-Jun-28 12:32N 59°29' E 024°32'7 7.3
2015-Jun-28 11:33N 59°28' E 024°46'1 0.8
2015-Jun-28 10:33N 59°27' E 024°46'0 0.1
2015-Jun-28 09:33N 59°27' E 024°46'0 0.0
2015-Jun-28 08:33N 59°27' E 024°46'8 5.9
2015-Jun-28 07:13N 59°29' E 024°32'0 0.0
2015-Jun-28 06:33N 59°29' E 024°32'0 0.0
2015-Jun-27 16:26N 59°29' E 024°32'6 6.8
2015-Jun-27 15:33N 59°28' E 024°44'1 0.9
2015-Jun-27 14:32N 59°28' E 024°42'0 0.0
2015-Jun-27 13:32N 59°28' E 024°42'0 0.0
2015-Jun-27 12:33N 59°28' E 024°42'0 0.0
2015-Jun-27 11:33N 59°28' E 024°42'0 0.0
2015-Jun-27 10:33N 59°28' E 024°42'0 0.0
2015-Jun-27 09:33N 59°28' E 024°42'0 0.0
2015-Jun-27 08:33N 59°28' E 024°42'0 0.0
2015-Jun-27 07:25N 59°28' E 024°42'0 0.0
2015-Jun-27 06:33N 59°28' E 024°42'2 1.7
2015-Jun-27 05:33N 59°28' E 024°45'2 2.3
2015-Jun-27 04:33N 59°30' E 024°49'0 0.0
2015-Jun-27 03:33N 59°30' E 024°49'0 0.0
2015-Jun-27 02:33N 59°30' E 024°49'0 0.0
2015-Jun-27 01:33N 59°30' E 024°49'0 0.0
2015-Jun-27 00:33N 59°30' E 024°49'0 0.0
2015-Jun-26 23:33N 59°30' E 024°49'0 0.0
2015-Jun-26 22:33N 59°30' E 024°49'0 0.0
2015-Jun-26 21:33N 59°30' E 024°49'0 0.0
2015-Jun-26 20:33N 59°30' E 024°49'0 0.0
2015-Jun-26 19:33N 59°30' E 024°49'0 0.0
2015-Jun-26 18:33N 59°30' E 024°49'0 0.0
2015-Jun-26 17:33N 59°30' E 024°49'0 0.0
2015-Jun-26 16:33N 59°30' E 024°49'3 3.3
2015-Jun-26 15:33N 59°30' E 024°42'6 2.6
2015-Jun-26 13:18N 59°31' E 024°31'0 0.1
2015-Jun-26 12:33N 59°31' E 024°31'0 0.0
2015-Jun-26 10:07N 59°31' E 024°31'4 1.7
2015-Jun-26 07:33N 59°28' E 024°37'1 0.8
2015-Jun-26 06:31N 59°28' E 024°39'0 0.0
2015-Jun-26 05:31N 59°28' E 024°39'0 0.0
2015-Jun-26 04:29N 59°28' E 024°39'0 0.0
2015-Jun-26 03:30N 59°28' E 024°39'0 0.0
2015-Jun-26 02:31N 59°28' E 024°39'0 0.0
2015-Jun-26 01:33N 59°28' E 024°39'0 0.0
2015-Jun-26 00:31N 59°28' E 024°39'0 0.0
2015-Jun-25 23:33N 59°28' E 024°39'0 0.0
2015-Jun-25 22:33N 59°28' E 024°39'0 0.0
2015-Jun-25 21:33N 59°28' E 024°39'0 0.0
2015-Jun-25 20:33N 59°28' E 024°39'0 0.0
2015-Jun-25 19:33N 59°28' E 024°39'0 0.0
2015-Jun-25 18:25N 59°28' E 024°39'0 0.0
2015-Jun-25 17:33N 59°28' E 024°39'0 0.0
2015-Jun-25 16:33N 59°28' E 024°39'  

Dump ship's entire track history